sensor_id;sensor_type;location;lat;lon;timestamp;temperature;humidity
78028;DHT22;67235;45.638;11.714;2023-11-22T00:00:07;7.20;81.70
78028;DHT22;67235;45.638;11.714;2023-11-22T00:02:33;7.20;81.70
78028;DHT22;67235;45.638;11.714;2023-11-22T00:04:59;7.10;82.00
78028;DHT22;67235;45.638;11.714;2023-11-22T00:07:25;7.30;81.80
78028;DHT22;67235;45.638;11.714;2023-11-22T00:09:54;7.30;81.10
78028;DHT22;67235;45.638;11.714;2023-11-22T00:12:20;7.10;80.70
78028;DHT22;67235;45.638;11.714;2023-11-22T00:14:46;7.10;80.70
78028;DHT22;67235;45.638;11.714;2023-11-22T00:17:12;7.10;80.70
78028;DHT22;67235;45.638;11.714;2023-11-22T00:19:38;7.00;80.50
78028;DHT22;67235;45.638;11.714;2023-11-22T00:22:04;6.80;80.90
78028;DHT22;67235;45.638;11.714;2023-11-22T00:24:37;6.80;80.90
78028;DHT22;67235;45.638;11.714;2023-11-22T00:27:02;6.90;80.90
78028;DHT22;67235;45.638;11.714;2023-11-22T00:29:28;6.70;81.30
78028;DHT22;67235;45.638;11.714;2023-11-22T00:31:54;6.70;81.20
78028;DHT22;67235;45.638;11.714;2023-11-22T00:34:20;6.60;81.20
78028;DHT22;67235;45.638;11.714;2023-11-22T00:36:47;6.60;81.00
78028;DHT22;67235;45.638;11.714;2023-11-22T00:39:14;6.70;81.40
78028;DHT22;67235;45.638;11.714;2023-11-22T00:41:40;6.80;81.50
78028;DHT22;67235;45.638;11.714;2023-11-22T00:44:05;6.80;81.80
78028;DHT22;67235;45.638;11.714;2023-11-22T00:46:31;6.70;81.40
78028;DHT22;67235;45.638;11.714;2023-11-22T00:48:57;6.60;81.60
78028;DHT22;67235;45.638;11.714;2023-11-22T00:51:24;6.60;81.60
78028;DHT22;67235;45.638;11.714;2023-11-22T00:53:49;6.70;81.60
78028;DHT22;67235;45.638;11.714;2023-11-22T00:56:16;6.40;81.70
78028;DHT22;67235;45.638;11.714;2023-11-22T00:58:42;6.60;81.30
78028;DHT22;67235;45.638;11.714;2023-11-22T01:01:08;6.50;81.40
78028;DHT22;67235;45.638;11.714;2023-11-22T01:03:33;6.30;80.90
78028;DHT22;67235;45.638;11.714;2023-11-22T01:06:00;6.50;81.00
78028;DHT22;67235;45.638;11.714;2023-11-22T01:08:27;6.40;81.10
78028;DHT22;67235;45.638;11.714;2023-11-22T01:10:53;6.30;81.20
78028;DHT22;67235;45.638;11.714;2023-11-22T01:13:19;6.20;81.30
78028;DHT22;67235;45.638;11.714;2023-11-22T01:15:50;6.40;81.40
78028;DHT22;67235;45.638;11.714;2023-11-22T01:18:33;6.30;81.30
78028;DHT22;67235;45.638;11.714;2023-11-22T01:20:59;6.40;81.20
78028;DHT22;67235;45.638;11.714;2023-11-22T01:23:25;6.30;81.20
78028;DHT22;67235;45.638;11.714;2023-11-22T01:25:50;6.40;81.90
78028;DHT22;67235;45.638;11.714;2023-11-22T01:28:16;6.30;81.30
78028;DHT22;67235;45.638;11.714;2023-11-22T01:30:45;6.30;81.70
78028;DHT22;67235;45.638;11.714;2023-11-22T01:33:14;6.30;81.20
78028;DHT22;67235;45.638;11.714;2023-11-22T01:35:40;6.40;81.30
78028;DHT22;67235;45.638;11.714;2023-11-22T01:38:06;6.20;81.20
78028;DHT22;67235;45.638;11.714;2023-11-22T01:40:32;6.20;81.20
78028;DHT22;67235;45.638;11.714;2023-11-22T01:42:58;6.10;81.10
78028;DHT22;67235;45.638;11.714;2023-11-22T01:45:23;6.00;81.80
78028;DHT22;67235;45.638;11.714;2023-11-22T01:47:50;6.30;82.00
78028;DHT22;67235;45.638;11.714;2023-11-22T01:50:16;6.10;81.90
78028;DHT22;67235;45.638;11.714;2023-11-22T01:52:42;6.20;81.60
78028;DHT22;67235;45.638;11.714;2023-11-22T01:55:08;6.30;81.60
78028;DHT22;67235;45.638;11.714;2023-11-22T01:57:34;6.30;81.30
78028;DHT22;67235;45.638;11.714;2023-11-22T02:00:03;6.10;80.90
78028;DHT22;67235;45.638;11.714;2023-11-22T02:02:30;6.00;80.90
78028;DHT22;67235;45.638;11.714;2023-11-22T02:04:56;6.10;80.90
78028;DHT22;67235;45.638;11.714;2023-11-22T02:07:22;6.10;80.70
78028;DHT22;67235;45.638;11.714;2023-11-22T02:09:47;6.10;81.70
78028;DHT22;67235;45.638;11.714;2023-11-22T02:12:14;6.00;81.50
78028;DHT22;67235;45.638;11.714;2023-11-22T02:14:40;6.10;82.10
78028;DHT22;67235;45.638;11.714;2023-11-22T02:17:06;6.00;81.10
78028;DHT22;67235;45.638;11.714;2023-11-22T02:19:31;6.00;81.90
78028;DHT22;67235;45.638;11.714;2023-11-22T02:21:58;5.90;81.80
78028;DHT22;67235;45.638;11.714;2023-11-22T02:24:24;6.00;81.80
78028;DHT22;67235;45.638;11.714;2023-11-22T02:26:52;5.80;81.00
78028;DHT22;67235;45.638;11.714;2023-11-22T02:29:17;5.80;81.80
78028;DHT22;67235;45.638;11.714;2023-11-22T02:31:43;5.80;81.60
78028;DHT22;67235;45.638;11.714;2023-11-22T02:34:09;5.80;81.30
78028;DHT22;67235;45.638;11.714;2023-11-22T02:36:35;5.80;81.50
78028;DHT22;67235;45.638;11.714;2023-11-22T02:39:01;5.90;81.80
78028;DHT22;67235;45.638;11.714;2023-11-22T02:41:27;5.90;81.60
78028;DHT22;67235;45.638;11.714;2023-11-22T02:43:55;5.90;81.60
78028;DHT22;67235;45.638;11.714;2023-11-22T02:46:21;6.00;81.50
78028;DHT22;67235;45.638;11.714;2023-11-22T02:48:47;5.90;81.60
78028;DHT22;67235;45.638;11.714;2023-11-22T02:51:13;5.80;81.50
78028;DHT22;67235;45.638;11.714;2023-11-22T02:53:39;5.90;81.30
78028;DHT22;67235;45.638;11.714;2023-11-22T02:56:09;5.80;81.10
78028;DHT22;67235;45.638;11.714;2023-11-22T02:58:34;5.80;81.10
78028;DHT22;67235;45.638;11.714;2023-11-22T03:01:00;5.90;81.50
78028;DHT22;67235;45.638;11.714;2023-11-22T03:03:26;5.90;81.60
78028;DHT22;67235;45.638;11.714;2023-11-22T03:05:52;6.00;81.50
78028;DHT22;67235;45.638;11.714;2023-11-22T03:08:18;6.10;81.00
78028;DHT22;67235;45.638;11.714;2023-11-22T03:10:44;6.00;81.10
78028;DHT22;67235;45.638;11.714;2023-11-22T03:13:09;5.80;81.20
78028;DHT22;67235;45.638;11.714;2023-11-22T03:15:35;5.90;81.30
78028;DHT22;67235;45.638;11.714;2023-11-22T03:18:01;6.20;81.10
78028;DHT22;67235;45.638;11.714;2023-11-22T03:20:28;6.00;81.30
78028;DHT22;67235;45.638;11.714;2023-11-22T03:22:54;6.10;81.40
78028;DHT22;67235;45.638;11.714;2023-11-22T03:25:20;6.30;81.70
78028;DHT22;67235;45.638;11.714;2023-11-22T03:27:46;6.20;81.20
78028;DHT22;67235;45.638;11.714;2023-11-22T03:30:12;6.30;81.60
78028;DHT22;67235;45.638;11.714;2023-11-22T03:32:40;6.50;81.60
78028;DHT22;67235;45.638;11.714;2023-11-22T03:35:07;6.20;81.70
78028;DHT22;67235;45.638;11.714;2023-11-22T03:37:33;6.40;81.50
78028;DHT22;67235;45.638;11.714;2023-11-22T03:39:59;6.20;81.40
78028;DHT22;67235;45.638;11.714;2023-11-22T03:42:24;6.40;81.30
78028;DHT22;67235;45.638;11.714;2023-11-22T03:44:52;6.40;81.20
78028;DHT22;67235;45.638;11.714;2023-11-22T03:47:18;6.30;81.10
78028;DHT22;67235;45.638;11.714;2023-11-22T03:49:44;6.30;80.90
78028;DHT22;67235;45.638;11.714;2023-11-22T03:52:10;6.40;81.00
78028;DHT22;67235;45.638;11.714;2023-11-22T03:54:37;6.30;80.90
78028;DHT22;67235;45.638;11.714;2023-11-22T03:57:03;6.40;80.70
78028;DHT22;67235;45.638;11.714;2023-11-22T03:59:28;6.10;80.60
78028;DHT22;67235;45.638;11.714;2023-11-22T04:01:54;6.30;80.60
78028;DHT22;67235;45.638;11.714;2023-11-22T04:04:20;6.30;80.30
78028;DHT22;67235;45.638;11.714;2023-11-22T04:06:46;6.20;80.40
78028;DHT22;67235;45.638;11.714;2023-11-22T04:09:11;6.20;80.30
78028;DHT22;67235;45.638;11.714;2023-11-22T04:11:42;6.10;80.60
78028;DHT22;67235;45.638;11.714;2023-11-22T04:14:08;6.20;80.60
78028;DHT22;67235;45.638;11.714;2023-11-22T04:16:33;6.20;80.80
78028;DHT22;67235;45.638;11.714;2023-11-22T04:18:59;6.20;80.80
78028;DHT22;67235;45.638;11.714;2023-11-22T04:21:25;6.20;80.70
78028;DHT22;67235;45.638;11.714;2023-11-22T04:23:51;6.20;80.80
78028;DHT22;67235;45.638;11.714;2023-11-22T04:26:17;6.20;80.60
78028;DHT22;67235;45.638;11.714;2023-11-22T04:28:45;6.20;80.60
78028;DHT22;67235;45.638;11.714;2023-11-22T04:31:11;6.10;80.60
78028;DHT22;67235;45.638;11.714;2023-11-22T04:33:37;6.20;80.60
78028;DHT22;67235;45.638;11.714;2023-11-22T04:36:03;6.10;80.50
78028;DHT22;67235;45.638;11.714;2023-11-22T04:38:29;6.00;80.60
78028;DHT22;67235;45.638;11.714;2023-11-22T04:40:54;6.10;80.60
78028;DHT22;67235;45.638;11.714;2023-11-22T04:43:20;6.10;80.80
78028;DHT22;67235;45.638;11.714;2023-11-22T04:45:46;6.10;80.70
78028;DHT22;67235;45.638;11.714;2023-11-22T04:48:12;6.20;80.40
78028;DHT22;67235;45.638;11.714;2023-11-22T04:50:40;6.10;80.60
78028;DHT22;67235;45.638;11.714;2023-11-22T04:53:06;6.10;80.40
78028;DHT22;67235;45.638;11.714;2023-11-22T04:55:32;6.00;80.70
78028;DHT22;67235;45.638;11.714;2023-11-22T04:57:57;6.30;80.80
78028;DHT22;67235;45.638;11.714;2023-11-22T05:00:23;6.20;80.70
78028;DHT22;67235;45.638;11.714;2023-11-22T05:02:49;6.10;80.10
78028;DHT22;67235;45.638;11.714;2023-11-22T05:05:15;6.10;80.00
78028;DHT22;67235;45.638;11.714;2023-11-22T05:07:40;6.00;80.10
78028;DHT22;67235;45.638;11.714;2023-11-22T05:10:06;6.00;80.10
78028;DHT22;67235;45.638;11.714;2023-11-22T05:12:35;6.00;80.10
78028;DHT22;67235;45.638;11.714;2023-11-22T05:15:03;5.80;80.10
78028;DHT22;67235;45.638;11.714;2023-11-22T05:17:29;5.90;80.40
78028;DHT22;67235;45.638;11.714;2023-11-22T05:19:55;6.00;80.10
78028;DHT22;67235;45.638;11.714;2023-11-22T05:22:21;5.60;79.50
78028;DHT22;67235;45.638;11.714;2023-11-22T05:24:49;5.70;79.70
78028;DHT22;67235;45.638;11.714;2023-11-22T05:27:15;5.70;80.00
78028;DHT22;67235;45.638;11.714;2023-11-22T05:29:40;5.70;80.10
78028;DHT22;67235;45.638;11.714;2023-11-22T05:32:06;5.70;79.90
78028;DHT22;67235;45.638;11.714;2023-11-22T05:34:32;5.60;79.90
78028;DHT22;67235;45.638;11.714;2023-11-22T05:36:58;5.60;80.00
78028;DHT22;67235;45.638;11.714;2023-11-22T05:39:26;5.80;80.20
78028;DHT22;67235;45.638;11.714;2023-11-22T05:41:52;5.50;80.50
78028;DHT22;67235;45.638;11.714;2023-11-22T05:44:18;5.70;80.70
78028;DHT22;67235;45.638;11.714;2023-11-22T05:46:43;5.60;80.60
78028;DHT22;67235;45.638;11.714;2023-11-22T05:49:09;5.60;80.40
78028;DHT22;67235;45.638;11.714;2023-11-22T05:51:36;5.60;80.00
78028;DHT22;67235;45.638;11.714;2023-11-22T05:54:03;5.40;80.00
78028;DHT22;67235;45.638;11.714;2023-11-22T05:56:28;5.50;80.60
78028;DHT22;67235;45.638;11.714;2023-11-22T05:58:54;5.40;80.60
78028;DHT22;67235;45.638;11.714;2023-11-22T06:01:20;5.60;81.70
78028;DHT22;67235;45.638;11.714;2023-11-22T06:04:04;5.60;81.20
78028;DHT22;67235;45.638;11.714;2023-11-22T06:06:29;5.60;80.40
78028;DHT22;67235;45.638;11.714;2023-11-22T06:08:55;5.40;80.60
78028;DHT22;67235;45.638;11.714;2023-11-22T06:11:21;5.10;80.80
78028;DHT22;67235;45.638;11.714;2023-11-22T06:13:46;5.20;80.90
78028;DHT22;67235;45.638;11.714;2023-11-22T06:16:12;5.30;81.10
78028;DHT22;67235;45.638;11.714;2023-11-22T06:18:38;5.20;81.20
78028;DHT22;67235;45.638;11.714;2023-11-22T06:21:06;5.10;81.20
78028;DHT22;67235;45.638;11.714;2023-11-22T06:23:31;5.30;81.00
78028;DHT22;67235;45.638;11.714;2023-11-22T06:25:58;5.20;80.90
78028;DHT22;67235;45.638;11.714;2023-11-22T06:28:23;5.10;80.70
78028;DHT22;67235;45.638;11.714;2023-11-22T06:30:50;5.30;80.90
78028;DHT22;67235;45.638;11.714;2023-11-22T06:33:16;5.20;80.90
78028;DHT22;67235;45.638;11.714;2023-11-22T06:35:41;5.30;80.80
78028;DHT22;67235;45.638;11.714;2023-11-22T06:38:09;5.20;81.00
78028;DHT22;67235;45.638;11.714;2023-11-22T06:40:35;5.50;81.10
78028;DHT22;67235;45.638;11.714;2023-11-22T06:43:06;5.60;81.10
78028;DHT22;67235;45.638;11.714;2023-11-22T06:45:40;5.80;81.00
78028;DHT22;67235;45.638;11.714;2023-11-22T06:48:20;5.70;80.80
78028;DHT22;67235;45.638;11.714;2023-11-22T06:51:00;5.70;80.60
78028;DHT22;67235;45.638;11.714;2023-11-22T06:53:32;6.00;80.60
78028;DHT22;67235;45.638;11.714;2023-11-22T06:55:58;6.00;80.40
78028;DHT22;67235;45.638;11.714;2023-11-22T06:58:24;6.10;79.70
78028;DHT22;67235;45.638;11.714;2023-11-22T07:00:50;6.00;79.50
78028;DHT22;67235;45.638;11.714;2023-11-22T07:03:16;6.20;80.20
78028;DHT22;67235;45.638;11.714;2023-11-22T07:05:42;5.90;80.30
78028;DHT22;67235;45.638;11.714;2023-11-22T07:08:07;6.30;80.40
78028;DHT22;67235;45.638;11.714;2023-11-22T07:10:33;6.40;80.10
78028;DHT22;67235;45.638;11.714;2023-11-22T07:13:00;6.50;80.10
78028;DHT22;67235;45.638;11.714;2023-11-22T07:15:27;6.60;79.80
78028;DHT22;67235;45.638;11.714;2023-11-22T07:17:53;6.90;79.90
78028;DHT22;67235;45.638;11.714;2023-11-22T07:20:19;7.30;79.70
78028;DHT22;67235;45.638;11.714;2023-11-22T07:22:45;7.50;79.20
78028;DHT22;67235;45.638;11.714;2023-11-22T07:25:11;7.70;78.80
78028;DHT22;67235;45.638;11.714;2023-11-22T07:27:46;8.30;78.30
78028;DHT22;67235;45.638;11.714;2023-11-22T07:30:13;9.00;77.40
78028;DHT22;67235;45.638;11.714;2023-11-22T07:32:39;9.40;76.00
78028;DHT22;67235;45.638;11.714;2023-11-22T07:35:06;9.90;75.50
78028;DHT22;67235;45.638;11.714;2023-11-22T07:37:36;10.60;74.50
78028;DHT22;67235;45.638;11.714;2023-11-22T07:40:06;11.10;73.60
78028;DHT22;67235;45.638;11.714;2023-11-22T07:42:35;11.90;73.40
78028;DHT22;67235;45.638;11.714;2023-11-22T07:45:02;12.10;73.40
78028;DHT22;67235;45.638;11.714;2023-11-22T07:47:30;11.90;73.00
78028;DHT22;67235;45.638;11.714;2023-11-22T07:49:56;12.00;73.50
78028;DHT22;67235;45.638;11.714;2023-11-22T07:52:22;12.70;72.20
78028;DHT22;67235;45.638;11.714;2023-11-22T07:54:59;13.80;70.80
78028;DHT22;67235;45.638;11.714;2023-11-22T07:57:25;14.50;70.10
78028;DHT22;67235;45.638;11.714;2023-11-22T07:59:51;15.10;68.60
78028;DHT22;67235;45.638;11.714;2023-11-22T08:02:22;16.10;66.90
78028;DHT22;67235;45.638;11.714;2023-11-22T08:07:13;19.50;56.00
78028;DHT22;67235;45.638;11.714;2023-11-22T08:09:44;20.60;48.70
78028;DHT22;67235;45.638;11.714;2023-11-22T08:12:10;21.60;44.90
78028;DHT22;67235;45.638;11.714;2023-11-22T08:14:39;22.50;42.10
78028;DHT22;67235;45.638;11.714;2023-11-22T08:17:09;23.60;40.90
78028;DHT22;67235;45.638;11.714;2023-11-22T08:19:34;24.20;38.60
78028;DHT22;67235;45.638;11.714;2023-11-22T08:22:01;24.90;36.60
78028;DHT22;67235;45.638;11.714;2023-11-22T08:24:29;25.10;35.90
78028;DHT22;67235;45.638;11.714;2023-11-22T08:26:55;25.20;35.80
78028;DHT22;67235;45.638;11.714;2023-11-22T08:29:21;25.50;34.70
78028;DHT22;67235;45.638;11.714;2023-11-22T08:31:48;25.70;34.60
78028;DHT22;67235;45.638;11.714;2023-11-22T08:34:16;26.10;33.50
78028;DHT22;67235;45.638;11.714;2023-11-22T08:36:43;26.50;32.10
78028;DHT22;67235;45.638;11.714;2023-11-22T08:39:09;26.60;32.10
78028;DHT22;67235;45.638;11.714;2023-11-22T08:41:37;26.90;31.70
78028;DHT22;67235;45.638;11.714;2023-11-22T08:44:19;26.90;31.60
78028;DHT22;67235;45.638;11.714;2023-11-22T08:46:45;27.50;31.40
78028;DHT22;67235;45.638;11.714;2023-11-22T08:49:12;27.60;30.60
78028;DHT22;67235;45.638;11.714;2023-11-22T08:51:40;27.70;31.00
78028;DHT22;67235;45.638;11.714;2023-11-22T08:54:09;28.30;30.20
78028;DHT22;67235;45.638;11.714;2023-11-22T08:56:35;28.50;29.40
78028;DHT22;67235;45.638;11.714;2023-11-22T08:59:07;28.40;29.60
78028;DHT22;67235;45.638;11.714;2023-11-22T09:01:33;28.80;29.20
78028;DHT22;67235;45.638;11.714;2023-11-22T09:03:59;29.10;27.90
78028;DHT22;67235;45.638;11.714;2023-11-22T09:06:27;30.00;27.30
78028;DHT22;67235;45.638;11.714;2023-11-22T09:08:55;30.30;26.70
78028;DHT22;67235;45.638;11.714;2023-11-22T09:11:27;30.60;25.80
78028;DHT22;67235;45.638;11.714;2023-11-22T09:14:00;30.70;26.10
78028;DHT22;67235;45.638;11.714;2023-11-22T09:16:39;30.80;26.10
78028;DHT22;67235;45.638;11.714;2023-11-22T09:19:05;31.10;25.50
78028;DHT22;67235;45.638;11.714;2023-11-22T09:21:34;31.00;25.00
78028;DHT22;67235;45.638;11.714;2023-11-22T09:24:00;31.50;24.70
78028;DHT22;67235;45.638;11.714;2023-11-22T09:26:26;31.50;25.40
78028;DHT22;67235;45.638;11.714;2023-11-22T09:28:52;31.60;26.00
78028;DHT22;67235;45.638;11.714;2023-11-22T09:31:19;31.40;24.30
78028;DHT22;67235;45.638;11.714;2023-11-22T09:33:46;31.60;24.00
78028;DHT22;67235;45.638;11.714;2023-11-22T09:36:12;31.70;24.70
78028;DHT22;67235;45.638;11.714;2023-11-22T09:38:38;31.70;24.80
78028;DHT22;67235;45.638;11.714;2023-11-22T09:41:04;31.50;25.10
78028;DHT22;67235;45.638;11.714;2023-11-22T09:43:31;31.60;24.80
78028;DHT22;67235;45.638;11.714;2023-11-22T09:45:56;31.90;23.90
78028;DHT22;67235;45.638;11.714;2023-11-22T09:48:27;32.10;24.20
78028;DHT22;67235;45.638;11.714;2023-11-22T09:51:08;32.60;22.30
78028;DHT22;67235;45.638;11.714;2023-11-22T09:56:19;33.10;21.40
78028;DHT22;67235;45.638;11.714;2023-11-22T09:58:45;33.30;22.10
78028;DHT22;67235;45.638;11.714;2023-11-22T10:01:12;33.60;22.20
78028;DHT22;67235;45.638;11.714;2023-11-22T10:03:38;33.60;21.90
78028;DHT22;67235;45.638;11.714;2023-11-22T10:06:05;33.90;21.20
78028;DHT22;67235;45.638;11.714;2023-11-22T10:08:33;33.90;21.60
78028;DHT22;67235;45.638;11.714;2023-11-22T10:11:01;34.00;20.70
78028;DHT22;67235;45.638;11.714;2023-11-22T10:13:27;34.00;20.50
78028;DHT22;67235;45.638;11.714;2023-11-22T10:15:56;34.20;19.70
78028;DHT22;67235;45.638;11.714;2023-11-22T10:18:37;34.30;20.10
78028;DHT22;67235;45.638;11.714;2023-11-22T10:21:18;34.10;19.90
78028;DHT22;67235;45.638;11.714;2023-11-22T10:23:44;34.30;19.80
78028;DHT22;67235;45.638;11.714;2023-11-22T10:26:09;34.20;18.80
78028;DHT22;67235;45.638;11.714;2023-11-22T10:28:35;34.30;18.70
78028;DHT22;67235;45.638;11.714;2023-11-22T10:31:01;33.80;18.30
78028;DHT22;67235;45.638;11.714;2023-11-22T10:33:32;33.60;17.00
78028;DHT22;67235;45.638;11.714;2023-11-22T10:35:58;32.90;17.50
78028;DHT22;67235;45.638;11.714;2023-11-22T10:38:24;32.20;17.80
78028;DHT22;67235;45.638;11.714;2023-11-22T10:40:51;31.40;18.10
78028;DHT22;67235;45.638;11.714;2023-11-22T10:43:20;32.10;18.30
78028;DHT22;67235;45.638;11.714;2023-11-22T10:45:49;32.30;16.90
78028;DHT22;67235;45.638;11.714;2023-11-22T10:48:16;32.30;17.00
78028;DHT22;67235;45.638;11.714;2023-11-22T10:50:43;32.70;16.70
78028;DHT22;67235;45.638;11.714;2023-11-22T10:53:11;31.50;16.80
78028;DHT22;67235;45.638;11.714;2023-11-22T10:55:41;32.30;16.80
78028;DHT22;67235;45.638;11.714;2023-11-22T10:58:07;32.90;16.00
78028;DHT22;67235;45.638;11.714;2023-11-22T11:00:34;32.90;14.70
78028;DHT22;67235;45.638;11.714;2023-11-22T11:03:23;32.70;13.50
78028;DHT22;67235;45.638;11.714;2023-11-22T11:05:52;32.30;15.20
78028;DHT22;67235;45.638;11.714;2023-11-22T11:08:19;29.80;16.20
78028;DHT22;67235;45.638;11.714;2023-11-22T11:10:47;28.80;16.70
78028;DHT22;67235;45.638;11.714;2023-11-22T11:13:14;30.00;15.90
78028;DHT22;67235;45.638;11.714;2023-11-22T11:15:41;29.10;15.30
78028;DHT22;67235;45.638;11.714;2023-11-22T11:18:09;29.90;15.70
78028;DHT22;67235;45.638;11.714;2023-11-22T11:20:45;28.80;16.60
78028;DHT22;67235;45.638;11.714;2023-11-22T11:23:18;27.70;17.00
78028;DHT22;67235;45.638;11.714;2023-11-22T11:25:47;27.10;19.40
78028;DHT22;67235;45.638;11.714;2023-11-22T11:28:13;28.60;17.60
78028;DHT22;67235;45.638;11.714;2023-11-22T11:30:40;29.30;16.50
78028;DHT22;67235;45.638;11.714;2023-11-22T11:33:07;30.60;17.70
78028;DHT22;67235;45.638;11.714;2023-11-22T11:35:42;30.30;16.60
78028;DHT22;67235;45.638;11.714;2023-11-22T11:38:12;29.30;16.90
78028;DHT22;67235;45.638;11.714;2023-11-22T11:40:43;29.50;16.70
78028;DHT22;67235;45.638;11.714;2023-11-22T11:43:10;28.70;17.30
78028;DHT22;67235;45.638;11.714;2023-11-22T11:45:42;28.30;17.00
78028;DHT22;67235;45.638;11.714;2023-11-22T11:48:15;29.30;16.60
78028;DHT22;67235;45.638;11.714;2023-11-22T11:50:42;29.80;16.20
78028;DHT22;67235;45.638;11.714;2023-11-22T11:53:08;30.20;16.40
78028;DHT22;67235;45.638;11.714;2023-11-22T11:55:33;28.50;17.20
78028;DHT22;67235;45.638;11.714;2023-11-22T11:58:06;29.20;17.20
78028;DHT22;67235;45.638;11.714;2023-11-22T12:00:36;28.70;18.30
78028;DHT22;67235;45.638;11.714;2023-11-22T12:03:06;29.00;16.10
78028;DHT22;67235;45.638;11.714;2023-11-22T12:05:32;28.20;16.60
78028;DHT22;67235;45.638;11.714;2023-11-22T12:07:58;27.50;17.40
78028;DHT22;67235;45.638;11.714;2023-11-22T12:10:24;26.80;18.60
78028;DHT22;67235;45.638;11.714;2023-11-22T12:12:50;27.50;19.30
78028;DHT22;67235;45.638;11.714;2023-11-22T12:15:16;27.50;16.60
78028;DHT22;67235;45.638;11.714;2023-11-22T12:17:41;28.40;17.80
78028;DHT22;67235;45.638;11.714;2023-11-22T12:20:11;28.90;16.80
78028;DHT22;67235;45.638;11.714;2023-11-22T12:22:39;28.90;16.90
78028;DHT22;67235;45.638;11.714;2023-11-22T12:25:06;29.10;17.30
78028;DHT22;67235;45.638;11.714;2023-11-22T12:27:32;29.20;17.70
78028;DHT22;67235;45.638;11.714;2023-11-22T12:29:59;29.50;18.50
78028;DHT22;67235;45.638;11.714;2023-11-22T12:32:25;29.60;16.30
78028;DHT22;67235;45.638;11.714;2023-11-22T12:34:51;29.30;16.90
78028;DHT22;67235;45.638;11.714;2023-11-22T12:37:22;28.90;16.80
78028;DHT22;67235;45.638;11.714;2023-11-22T12:39:49;28.70;16.40
78028;DHT22;67235;45.638;11.714;2023-11-22T12:42:17;28.70;16.30
78028;DHT22;67235;45.638;11.714;2023-11-22T12:44:47;28.80;16.00
78028;DHT22;67235;45.638;11.714;2023-11-22T12:47:13;28.40;17.90
78028;DHT22;67235;45.638;11.714;2023-11-22T12:49:44;28.50;17.70
78028;DHT22;67235;45.638;11.714;2023-11-22T12:52:21;28.20;16.20
78028;DHT22;67235;45.638;11.714;2023-11-22T12:54:52;27.30;16.50
78028;DHT22;67235;45.638;11.714;2023-11-22T12:57:18;26.20;18.60
78028;DHT22;67235;45.638;11.714;2023-11-22T12:59:43;26.80;18.20
78028;DHT22;67235;45.638;11.714;2023-11-22T13:02:11;27.30;18.20
78028;DHT22;67235;45.638;11.714;2023-11-22T13:04:37;27.60;18.30
78028;DHT22;67235;45.638;11.714;2023-11-22T13:07:03;27.90;16.90
78028;DHT22;67235;45.638;11.714;2023-11-22T13:09:28;27.80;17.30
78028;DHT22;67235;45.638;11.714;2023-11-22T13:11:55;27.30;17.50
78028;DHT22;67235;45.638;11.714;2023-11-22T13:14:21;27.20;18.10
78028;DHT22;67235;45.638;11.714;2023-11-22T13:17:02;27.50;17.50
78028;DHT22;67235;45.638;11.714;2023-11-22T13:19:27;27.70;17.80
78028;DHT22;67235;45.638;11.714;2023-11-22T13:21:53;27.60;18.70
78028;DHT22;67235;45.638;11.714;2023-11-22T13:24:20;27.20;17.60
78028;DHT22;67235;45.638;11.714;2023-11-22T13:26:46;26.90;18.20
78028;DHT22;67235;45.638;11.714;2023-11-22T13:29:12;26.60;17.50
78028;DHT22;67235;45.638;11.714;2023-11-22T13:31:37;26.20;19.20
78028;DHT22;67235;45.638;11.714;2023-11-22T13:34:04;25.90;19.20
78028;DHT22;67235;45.638;11.714;2023-11-22T13:36:31;25.50;21.30
78028;DHT22;67235;45.638;11.714;2023-11-22T13:38:58;25.50;21.60
78028;DHT22;67235;45.638;11.714;2023-11-22T13:41:24;25.20;21.00
78028;DHT22;67235;45.638;11.714;2023-11-22T13:43:51;24.90;21.60
78028;DHT22;67235;45.638;11.714;2023-11-22T13:46:16;24.60;21.40
78028;DHT22;67235;45.638;11.714;2023-11-22T13:48:42;24.30;21.10
78028;DHT22;67235;45.638;11.714;2023-11-22T13:51:09;23.90;22.80
78028;DHT22;67235;45.638;11.714;2023-11-22T13:53:36;23.50;25.20
78028;DHT22;67235;45.638;11.714;2023-11-22T13:56:08;23.20;23.80
78028;DHT22;67235;45.638;11.714;2023-11-22T13:58:34;22.80;23.90
78028;DHT22;67235;45.638;11.714;2023-11-22T14:01:01;22.50;24.60
78028;DHT22;67235;45.638;11.714;2023-11-22T14:03:31;22.00;25.60
78028;DHT22;67235;45.638;11.714;2023-11-22T14:05:58;21.70;26.20
78028;DHT22;67235;45.638;11.714;2023-11-22T14:08:27;21.20;26.20
78028;DHT22;67235;45.638;11.714;2023-11-22T14:11:12;20.90;29.60
78028;DHT22;67235;45.638;11.714;2023-11-22T14:13:38;20.30;29.20
78028;DHT22;67235;45.638;11.714;2023-11-22T14:16:05;20.20;29.50
78028;DHT22;67235;45.638;11.714;2023-11-22T14:18:31;20.00;30.90
78028;DHT22;67235;45.638;11.714;2023-11-22T14:20:57;19.80;31.10
78028;DHT22;67235;45.638;11.714;2023-11-22T14:23:23;19.70;30.90
78028;DHT22;67235;45.638;11.714;2023-11-22T14:25:48;19.60;30.50
78028;DHT22;67235;45.638;11.714;2023-11-22T14:28:15;19.40;31.10
78028;DHT22;67235;45.638;11.714;2023-11-22T14:30:41;19.20;32.50
78028;DHT22;67235;45.638;11.714;2023-11-22T14:33:07;19.10;33.70
78028;DHT22;67235;45.638;11.714;2023-11-22T14:35:35;19.00;35.10
78028;DHT22;67235;45.638;11.714;2023-11-22T14:38:01;18.70;34.50
78028;DHT22;67235;45.638;11.714;2023-11-22T14:40:31;18.60;35.10
78028;DHT22;67235;45.638;11.714;2023-11-22T14:42:58;18.40;36.90
78028;DHT22;67235;45.638;11.714;2023-11-22T14:45:26;18.30;37.60
78028;DHT22;67235;45.638;11.714;2023-11-22T14:47:58;18.20;36.80
78028;DHT22;67235;45.638;11.714;2023-11-22T14:50:24;18.10;35.80
78028;DHT22;67235;45.638;11.714;2023-11-22T14:52:54;17.90;37.50
78028;DHT22;67235;45.638;11.714;2023-11-22T14:55:20;17.70;38.00
78028;DHT22;67235;45.638;11.714;2023-11-22T14:57:48;17.70;35.80
78028;DHT22;67235;45.638;11.714;2023-11-22T15:00:15;17.40;37.50
78028;DHT22;67235;45.638;11.714;2023-11-22T15:02:43;17.40;36.80
78028;DHT22;67235;45.638;11.714;2023-11-22T15:05:18;17.20;42.80
78028;DHT22;67235;45.638;11.714;2023-11-22T15:07:44;17.00;45.10
78028;DHT22;67235;45.638;11.714;2023-11-22T15:10:14;16.80;44.70
78028;DHT22;67235;45.638;11.714;2023-11-22T15:12:52;16.60;45.20
78028;DHT22;67235;45.638;11.714;2023-11-22T15:15:20;16.30;42.90
78028;DHT22;67235;45.638;11.714;2023-11-22T15:17:50;16.10;42.00
78028;DHT22;67235;45.638;11.714;2023-11-22T15:20:16;15.90;42.80
78028;DHT22;67235;45.638;11.714;2023-11-22T15:22:42;15.80;49.80
78028;DHT22;67235;45.638;11.714;2023-11-22T15:25:08;15.60;45.50
78028;DHT22;67235;45.638;11.714;2023-11-22T15:27:35;15.50;49.70